^^
Your Local Weather - Clay, NY Station Historical Data
Daily Summary for January 25, 2018 Units:  Both    English   Metric
« Previous Day
Next Day »
Daily Weekly Monthly Yearly Custom
  High: Low: Average:
Temperature: 23.6 °F /  -4.7 °C 7.6 °F /  -13.6 °C 17.1 °F /  -8.3 °C
Dew Point: 14.1 °F /  -9.9 °C 3.0 °F /  -16.1 °C 7.3 °F /  -13.7 °C
Humidity: 83% 47% 66%
Wind Speed: 3.0mph /  4.8km/h - 0.8mph /  1.3km/h
Wind Gust: 7.0mph /  11.3km/h - -
Wind- - WNW
Pressure: 30.57 in /  1035.1 hPa 30.23 in /  1023.6 hPa -
Precipitation: 0.00 in /  0 mm    
Historical Graphs
 
 
Tabular Data for January 25, 2018
Time Temperature Dew Point Pressure Wind Wind Speed Wind Gust Humidity Rainfall Rate (Hourly) solar
00:04 18.7 °F /  -7.4 °C 14.1 °F /  -9.9 °C 30.23in /  1023.6hPa WNW 1.0mph /  1.6km/h 1.0mph /  1.6km/h 82% 0.00in /  0mm 0 W/m2
00:10 18.6 °F /  -7.4 °C 14.0 °F /  -10 °C 30.23in /  1023.6hPa Calm     82% 0.00in /  0mm 0 W/m2
00:16 18.5 °F /  -7.5 °C 13.9 °F /  -10.1 °C 30.23in /  1023.6hPa Calm   2.0mph /  3.2km/h 82% 0.00in /  0mm 0 W/m2
00:22 18.2 °F /  -7.7 °C 12.8 °F /  -10.7 °C 30.23in /  1023.6hPa North 1.0mph /  1.6km/h 3.0mph /  4.8km/h 79% 0.00in /  0mm 0 W/m2
00:28 18.0 °F /  -7.8 °C 11.7 °F /  -11.3 °C 30.23in /  1023.6hPa North 1.0mph /  1.6km/h 3.0mph /  4.8km/h 76% 0.00in /  0mm 0 W/m2
00:34 17.9 °F /  -7.8 °C 11.0 °F /  -11.7 °C 30.23in /  1023.6hPa North 1.0mph /  1.6km/h 2.0mph /  3.2km/h 74% 0.00in /  0mm 0 W/m2
00:40 17.7 °F /  -7.9 °C 10.2 °F /  -12.1 °C 30.23in /  1023.6hPa NNE 1.0mph /  1.6km/h 2.0mph /  3.2km/h 72% 0.00in /  0mm 0 W/m2
00:46 17.5 °F /  -8.1 °C 9.4 °F /  -12.6 °C 30.24in /  1023.9hPa North 2.0mph /  3.2km/h 3.0mph /  4.8km/h 70% 0.00in /  0mm 0 W/m2
00:52 17.4 °F /  -8.1 °C 9.3 °F /  -12.6 °C 30.24in /  1023.9hPa North 1.0mph /  1.6km/h 2.0mph /  3.2km/h 70% 0.00in /  0mm 0 W/m2
00:58 17.2 °F /  -8.2 °C 9.1 °F /  -12.7 °C 30.24in /  1023.9hPa NNW 1.0mph /  1.6km/h 3.0mph /  4.8km/h 70% 0.00in /  0mm 0 W/m2
01:04 17.1 °F /  -8.3 °C 9.0 °F /  -12.8 °C 30.24in /  1023.9hPa North 2.0mph /  3.2km/h 3.0mph /  4.8km/h 70% 0.00in /  0mm 0 W/m2
01:10 17.0 °F /  -8.3 °C 8.6 °F /  -13 °C 30.24in /  1023.9hPa NNW 3.0mph /  4.8km/h 3.0mph /  4.8km/h 69% 0.00in /  0mm 0 W/m2
01:16 16.9 °F /  -8.4 °C 8.5 °F /  -13.1 °C 30.24in /  1023.9hPa NNW 2.0mph /  3.2km/h 3.0mph /  4.8km/h 69% 0.00in /  0mm 0 W/m2
01:22 16.8 °F /  -8.4 °C 8.7 °F /  -12.9 °C 30.25in /  1024.3hPa NNW 1.0mph /  1.6km/h 1.0mph /  1.6km/h 70% 0.00in /  0mm 0 W/m2
01:28 16.6 °F /  -8.6 °C 8.5 °F /  -13.1 °C 30.25in /  1024.3hPa Calm   2.0mph /  3.2km/h 70% 0.00in /  0mm 0 W/m2
01:34 16.4 °F /  -8.7 °C 8.3 °F /  -13.2 °C 30.25in /  1024.3hPa NNW 1.0mph /  1.6km/h 4.0mph /  6.4km/h 70% 0.00in /  0mm 0 W/m2
01:40 16.3 °F /  -8.7 °C 8.2 °F /  -13.2 °C 30.25in /  1024.3hPa NNW 2.0mph /  3.2km/h 2.0mph /  3.2km/h 70% 0.00in /  0mm 0 W/m2
01:46 16.2 °F /  -8.8 °C 8.1 °F /  -13.3 °C 30.25in /  1024.3hPa NNW 2.0mph /  3.2km/h 3.0mph /  4.8km/h 70% 0.00in /  0mm 0 W/m2
01:52 16.0 °F /  -8.9 °C 7.6 °F /  -13.6 °C 30.26in /  1024.6hPa NW 2.0mph /  3.2km/h 5.0mph /  8km/h 69% 0.00in /  0mm 0 W/m2
01:58 15.8 °F /  -9 °C 7.4 °F /  -13.7 °C 30.26in /  1024.6hPa North 2.0mph /  3.2km/h 5.0mph /  8km/h 69% 0.00in /  0mm 0 W/m2
02:04 15.6 °F /  -9.1 °C 7.2 °F /  -13.8 °C 30.27in /  1024.9hPa North 1.0mph /  1.6km/h 2.0mph /  3.2km/h 69% 0.00in /  0mm 0 W/m2
02:10 15.5 °F /  -9.2 °C 7.5 °F /  -13.6 °C 30.27in /  1024.9hPa North 1.0mph /  1.6km/h 3.0mph /  4.8km/h 70% 0.00in /  0mm 0 W/m2
02:16 15.4 °F /  -9.2 °C 7.4 °F /  -13.7 °C 30.27in /  1024.9hPa NNW 2.0mph /  3.2km/h 3.0mph /  4.8km/h 70% 0.00in /  0mm 0 W/m2
02:22 15.3 °F /  -9.3 °C 7.3 °F /  -13.7 °C 30.28in /  1025.3hPa NNW 2.0mph /  3.2km/h 2.0mph /  3.2km/h 70% 0.00in /  0mm 0 W/m2
02:28 15.2 °F /  -9.3 °C 7.2 °F /  -13.8 °C 30.28in /  1025.3hPa NNW 2.0mph /  3.2km/h 2.0mph /  3.2km/h 70% 0.00in /  0mm 0 W/m2
02:34 15.1 °F /  -9.4 °C 7.4 °F /  -13.7 °C 30.28in /  1025.3hPa NNW 1.0mph /  1.6km/h 2.0mph /  3.2km/h 71% 0.00in /  0mm 0 W/m2
02:40 15.0 °F /  -9.4 °C 7.3 °F /  -13.7 °C 30.29in /  1025.6hPa NNW 1.0mph /  1.6km/h 1.0mph /  1.6km/h 71% 0.00in /  0mm 0 W/m2
02:46 15.0 °F /  -9.4 °C 7.3 °F /  -13.7 °C 30.29in /  1025.6hPa NNW 1.0mph /  1.6km/h 2.0mph /  3.2km/h 71% 0.00in /  0mm 0 W/m2
02:52 14.8 °F /  -9.6 °C 7.4 °F /  -13.7 °C 30.30in /  1026hPa NNW 1.0mph /  1.6km/h 1.0mph /  1.6km/h 72% 0.00in /  0mm 0 W/m2
02:58 14.7 °F /  -9.6 °C 7.3 °F /  -13.7 °C 30.30in /  1026hPa NNW 1.0mph /  1.6km/h 2.0mph /  3.2km/h 72% 0.00in /  0mm 0 W/m2
03:04 14.6 °F /  -9.7 °C 7.2 °F /  -13.8 °C 30.30in /  1026hPa NNW 2.0mph /  3.2km/h 3.0mph /  4.8km/h 72% 0.00in /  0mm 0 W/m2
03:10 14.5 °F /  -9.7 °C 7.1 °F /  -13.8 °C 30.30in /  1026hPa NNW 1.0mph /  1.6km/h 2.0mph /  3.2km/h 72% 0.00in /  0mm 0 W/m2
03:16 14.3 °F /  -9.8 °C 7.2 °F /  -13.8 °C 30.31in /  1026.3hPa NNW 2.0mph /  3.2km/h 3.0mph /  4.8km/h 73% 0.00in /  0mm 0 W/m2
03:22 14.2 °F /  -9.9 °C 7.1 °F /  -13.8 °C 30.31in /  1026.3hPa NNW 2.0mph /  3.2km/h 4.0mph /  6.4km/h 73% 0.00in /  0mm 0 W/m2
03:28 14.0 °F /  -10 °C 6.9 °F /  -13.9 °C 30.32in /  1026.6hPa NNW 1.0mph /  1.6km/h 4.0mph /  6.4km/h 73% 0.00in /  0mm 0 W/m2
03:34 13.9 °F /  -10.1 °C 6.8 °F /  -14 °C 30.32in /  1026.6hPa Calm     73% 0.00in /  0mm 0 W/m2
03:40 13.7 °F /  -10.2 °C 6.6 °F /  -14.1 °C 30.32in /  1026.6hPa Calm   1.0mph /  1.6km/h 73% 0.00in /  0mm 0 W/m2
03:46 13.5 °F /  -10.3 °C 6.8 °F /  -14 °C 30.32in /  1026.6hPa NNW 1.0mph /  1.6km/h 2.0mph /  3.2km/h 74% 0.00in /  0mm 0 W/m2
03:52 13.4 °F /  -10.3 °C 6.7 °F /  -14.1 °C 30.33in /  1027hPa NNW 1.0mph /  1.6km/h 1.0mph /  1.6km/h 74% 0.00in /  0mm 0 W/m2
03:58 13.3 °F /  -10.4 °C 6.6 °F /  -14.1 °C 30.33in /  1027hPa Calm   1.0mph /  1.6km/h 74% 0.00in /  0mm 0 W/m2
04:04 13.2 °F /  -10.4 °C 6.8 °F /  -14 °C 30.33in /  1027hPa NNW 1.0mph /  1.6km/h 1.0mph /  1.6km/h 75% 0.00in /  0mm 0 W/m2
04:10 13.0 °F /  -10.6 °C 6.6 °F /  -14.1 °C 30.33in /  1027hPa NNW 1.0mph /  1.6km/h 1.0mph /  1.6km/h 75% 0.00in /  0mm 0 W/m2
04:16 12.8 °F /  -10.7 °C 6.4 °F /  -14.2 °C 30.34in /  1027.3hPa North 1.0mph /  1.6km/h 3.0mph /  4.8km/h 75% 0.00in /  0mm 0 W/m2
04:22 12.7 °F /  -10.7 °C 6.0 °F /  -14.4 °C 30.34in /  1027.3hPa North 1.0mph /  1.6km/h 2.0mph /  3.2km/h 74% 0.00in /  0mm 0 W/m2
04:28 12.6 °F /  -10.8 °C 6.2 °F /  -14.3 °C 30.34in /  1027.3hPa North 1.0mph /  1.6km/h 2.0mph /  3.2km/h 75% 0.00in /  0mm 0 W/m2
04:34 12.5 °F /  -10.8 °C 6.1 °F /  -14.4 °C 30.35in /  1027.7hPa North 1.0mph /  1.6km/h 1.0mph /  1.6km/h 75% 0.00in /  0mm 0 W/m2
04:40 12.3 °F /  -10.9 °C 5.9 °F /  -14.5 °C 30.35in /  1027.7hPa Calm     75% 0.00in /  0mm 0 W/m2
04:46 12.0 °F /  -11.1 °C 5.6 °F /  -14.7 °C 30.35in /  1027.7hPa Calm     75% 0.00in /  0mm 0 W/m2
04:52 11.8 °F /  -11.2 °C 5.4 °F /  -14.8 °C 30.36in /  1028hPa Calm     75% 0.00in /  0mm 0 W/m2
04:58 11.4 °F /  -11.4 °C 5.0 °F /  -15 °C 30.36in /  1028hPa Calm     75% 0.00in /  0mm 0 W/m2
05:04 11.2 °F /  -11.6 °C 5.1 °F /  -14.9 °C 30.36in /  1028hPa Calm     76% 0.00in /  0mm 0 W/m2
05:10 10.9 °F /  -11.7 °C 4.8 °F /  -15.1 °C 30.37in /  1028.3hPa Calm     76% 0.00in /  0mm 0 W/m2
05:16 10.7 °F /  -11.8 °C 4.6 °F /  -15.2 °C 30.37in /  1028.3hPa Calm     76% 0.00in /  0mm 0 W/m2
05:22 10.6 °F /  -11.9 °C 4.8 °F /  -15.1 °C 30.38in /  1028.7hPa Calm     77% 0.00in /  0mm 0 W/m2
05:28 10.6 °F /  -11.9 °C 4.8 °F /  -15.1 °C 30.38in /  1028.7hPa Calm     77% 0.00in /  0mm 0 W/m2
05:34 10.6 °F /  -11.9 °C 4.8 °F /  -15.1 °C 30.38in /  1028.7hPa Calm   1.0mph /  1.6km/h 77% 0.00in /  0mm 0 W/m2
05:40 10.6 °F /  -11.9 °C 4.8 °F /  -15.1 °C 30.39in /  1029hPa Calm     77% 0.00in /  0mm 0 W/m2
05:46 10.6 °F /  -11.9 °C 4.8 °F /  -15.1 °C 30.39in /  1029hPa Calm   1.0mph /  1.6km/h 77% 0.00in /  0mm 0 W/m2
05:52 10.6 °F /  -11.9 °C 4.8 °F /  -15.1 °C 30.40in /  1029.3hPa Calm   3.0mph /  4.8km/h 77% 0.00in /  0mm 0 W/m2
05:58 10.5 °F /  -11.9 °C 4.7 °F /  -15.2 °C 30.40in /  1029.3hPa Calm   3.0mph /  4.8km/h 77% 0.00in /  0mm 0 W/m2
06:04 10.5 °F /  -11.9 °C 4.7 °F /  -15.2 °C 30.40in /  1029.3hPa Calm     77% 0.00in /  0mm 0 W/m2
06:10 10.4 °F /  -12 °C 4.6 °F /  -15.2 °C 30.40in /  1029.3hPa Calm     77% 0.00in /  0mm 0 W/m2
06:16 10.3 °F /  -12.1 °C 4.2 °F /  -15.4 °C 30.41in /  1029.7hPa Calm     76% 0.00in /  0mm 0 W/m2
06:22 10.1 °F /  -12.2 °C 4.0 °F /  -15.6 °C 30.41in /  1029.7hPa Calm     76% 0.00in /  0mm 0 W/m2
06:28 9.8 °F /  -12.3 °C 4.0 °F /  -15.6 °C 30.41in /  1029.7hPa Calm     77% 0.00in /  0mm 0 W/m2
06:34 9.7 °F /  -12.4 °C 3.9 °F /  -15.6 °C 30.41in /  1029.7hPa Calm     77% 0.00in /  0mm 0 W/m2
06:40 9.5 °F /  -12.5 °C 3.7 °F /  -15.7 °C 30.41in /  1029.7hPa Calm     77% 0.00in /  0mm 0 W/m2
06:46 9.2 °F /  -12.7 °C 3.4 °F /  -15.9 °C 30.42in /  1030hPa Calm     77% 0.00in /  0mm 0 W/m2
06:52 8.9 °F /  -12.8 °C 3.4 °F /  -15.9 °C 30.42in /  1030hPa Calm     78% 0.00in /  0mm 0 W/m2
06:58 8.6 °F /  -13 °C 3.4 °F /  -15.9 °C 30.43in /  1030.4hPa Calm     79% 0.00in /  0mm 0 W/m2
07:04 8.4 °F /  -13.1 °C 3.2 °F /  -16 °C 30.43in /  1030.4hPa Calm     79% 0.00in /  0mm 0 W/m2
07:10 8.2 °F /  -13.2 °C 3.0 °F /  -16.1 °C 30.43in /  1030.4hPa Calm     79% 0.00in /  0mm 0 W/m2
07:16 8.0 °F /  -13.3 °C 3.1 °F /  -16.1 °C 30.43in /  1030.4hPa Calm     80% 0.00in /  0mm 0 W/m2
07:22 7.9 °F /  -13.4 °C 3.0 °F /  -16.1 °C 30.43in /  1030.4hPa Calm     80% 0.00in /  0mm 0 W/m2
07:28 7.8 °F /  -13.4 °C 3.2 °F /  -16 °C 30.44in /  1030.7hPa Calm     81% 0.00in /  0mm 5 W/m2
07:34 7.8 °F /  -13.4 °C 3.2 °F /  -16 °C 30.44in /  1030.7hPa Calm     81% 0.00in /  0mm 7 W/m2
07:40 7.7 °F /  -13.5 °C 3.1 °F /  -16.1 °C 30.44in /  1030.7hPa Calm     81% 0.00in /  0mm 9 W/m2
07:46 7.6 °F /  -13.6 °C 3.0 °F /  -16.1 °C 30.44in /  1030.7hPa Calm     81% 0.00in /  0mm 12 W/m2
07:52 7.6 °F /  -13.6 °C 3.3 °F /  -15.9 °C 30.44in /  1030.7hPa Calm     82% 0.00in /  0mm 14 W/m2
07:58 7.9 °F /  -13.4 °C 3.5 °F /  -15.8 °C 30.44in /  1030.7hPa Calm     82% 0.00in /  0mm 18 W/m2
08:04 8.0 °F /  -13.3 °C 3.6 °F /  -15.8 °C 30.44in /  1030.7hPa Calm     82% 0.00in /  0mm 19 W/m2
08:10 8.0 °F /  -13.3 °C 3.9 °F /  -15.6 °C 30.45in /  1031hPa Calm     83% 0.00in /  0mm 23 W/m2
08:16 8.2 °F /  -13.2 °C 4.1 °F /  -15.5 °C 30.45in /  1031hPa Calm     83% 0.00in /  0mm 25 W/m2
08:22 8.6 °F /  -13 °C 4.5 °F /  -15.3 °C 30.45in /  1031hPa Calm     83% 0.00in /  0mm 51 W/m2
08:28 9.0 °F /  -12.8 °C 4.9 °F /  -15.1 °C 30.46in /  1031.4hPa Calm     83% 0.00in /  0mm 118 W/m2
08:34 9.5 °F /  -12.5 °C 5.4 °F /  -14.8 °C 30.46in /  1031.4hPa Calm     83% 0.00in /  0mm 121 W/m2
08:40 10.2 °F /  -12.1 °C 5.5 °F /  -14.7 °C 30.47in /  1031.7hPa Calm   1.0mph /  1.6km/h 81% 0.00in /  0mm 169 W/m2
08:46 12.4 °F /  -10.9 °C 6.0 °F /  -14.4 °C 30.47in /  1031.7hPa Calm   1.0mph /  1.6km/h 75% 0.00in /  0mm 199 W/m2
08:52 12.7 °F /  -10.7 °C 5.1 °F /  -14.9 °C 30.47in /  1031.7hPa North 1.0mph /  1.6km/h 2.0mph /  3.2km/h 71% 0.00in /  0mm 214 W/m2
10:54 18.4 °F /  -7.6 °C 7.2 °F /  -13.8 °C 30.50in /  1032.7hPa NNW 1.0mph /  1.6km/h 1.0mph /  1.6km/h 61% 0.00in /  0mm 490 W/m2
11:00 19.0 °F /  -7.2 °C 8.1 °F /  -13.3 °C 30.50in /  1032.7hPa Calm   4.0mph /  6.4km/h 62% 0.00in /  0mm 510 W/m2
11:05 19.5 °F /  -6.9 °C 9.3 °F /  -12.6 °C 30.50in /  1032.7hPa NNW 1.0mph /  1.6km/h 4.0mph /  6.4km/h 64% 0.00in /  0mm 548 W/m2
11:12 19.2 °F /  -7.1 °C 9.0 °F /  -12.8 °C 30.50in /  1032.7hPa West 1.0mph /  1.6km/h 6.0mph /  9.7km/h 64% 0.00in /  0mm 510 W/m2
11:18 19.6 °F /  -6.9 °C 9.7 °F /  -12.4 °C 30.50in /  1032.7hPa West 2.0mph /  3.2km/h 6.0mph /  9.7km/h 65% 0.00in /  0mm 499 W/m2
11:23 19.7 °F /  -6.8 °C 9.8 °F /  -12.3 °C 30.49in /  1032.4hPa WNW 2.0mph /  3.2km/h 2.0mph /  3.2km/h 65% 0.00in /  0mm 517 W/m2
11:30 19.9 °F /  -6.7 °C 9.7 °F /  -12.4 °C 30.49in /  1032.4hPa WNW 2.0mph /  3.2km/h 2.0mph /  3.2km/h 64% 0.00in /  0mm 687 W/m2
11:35 19.1 °F /  -7.2 °C 8.6 °F /  -13 °C 30.49in /  1032.4hPa WNW 2.0mph /  3.2km/h 6.0mph /  9.7km/h 63% 0.00in /  0mm 374 W/m2
11:42 20.2 °F /  -6.6 °C 10.0 °F /  -12.2 °C 30.49in /  1032.4hPa WNW 2.0mph /  3.2km/h 2.0mph /  3.2km/h 64% 0.00in /  0mm 471 W/m2
11:48 19.3 °F /  -7.1 °C 8.4 °F /  -13.1 °C 30.49in /  1032.4hPa WNW 2.0mph /  3.2km/h 4.0mph /  6.4km/h 62% 0.00in /  0mm 322 W/m2
11:53 19.1 °F /  -7.2 °C 9.3 °F /  -12.6 °C 30.49in /  1032.4hPa WNW 2.0mph /  3.2km/h 2.0mph /  3.2km/h 65% 0.00in /  0mm 320 W/m2
11:59 19.4 °F /  -7 °C 9.2 °F /  -12.7 °C 30.49in /  1032.4hPa WSW 1.0mph /  1.6km/h 1.0mph /  1.6km/h 64% 0.00in /  0mm 362 W/m2
12:05 20.0 °F /  -6.7 °C 9.8 °F /  -12.3 °C 30.48in /  1032.1hPa WSW 1.0mph /  1.6km/h 1.0mph /  1.6km/h 64% 0.00in /  0mm 297 W/m2
12:12 20.1 °F /  -6.6 °C 9.2 °F /  -12.7 °C 30.48in /  1032.1hPa NW 1.0mph /  1.6km/h 2.0mph /  3.2km/h 62% 0.00in /  0mm 295 W/m2
12:18 19.9 °F /  -6.7 °C 9.0 °F /  -12.8 °C 30.48in /  1032.1hPa NW 2.0mph /  3.2km/h 2.0mph /  3.2km/h 62% 0.00in /  0mm 278 W/m2
12:24 19.6 °F /  -6.9 °C 9.0 °F /  -12.8 °C 30.48in /  1032.1hPa NW 2.0mph /  3.2km/h 3.0mph /  4.8km/h 63% 0.00in /  0mm 276 W/m2
12:30 19.6 °F /  -6.9 °C 9.0 °F /  -12.8 °C 30.48in /  1032.1hPa NW 2.0mph /  3.2km/h 3.0mph /  4.8km/h 63% 0.00in /  0mm 306 W/m2
12:35 20.6 °F /  -6.3 °C 9.3 °F /  -12.6 °C 30.48in /  1032.1hPa NW 1.0mph /  1.6km/h 3.0mph /  4.8km/h 61% 0.00in /  0mm 320 W/m2
12:42 21.0 °F /  -6.1 °C 9.3 °F /  -12.6 °C 30.48in /  1032.1hPa WNW 1.0mph /  1.6km/h 3.0mph /  4.8km/h 60% 0.00in /  0mm 320 W/m2
12:48 21.2 °F /  -6 °C 9.8 °F /  -12.3 °C 30.48in /  1032.1hPa West 2.0mph /  3.2km/h 3.0mph /  4.8km/h 61% 0.00in /  0mm 362 W/m2
12:53 21.3 °F /  -5.9 °C 9.2 °F /  -12.7 °C 30.48in /  1032.1hPa WSW 2.0mph /  3.2km/h 3.0mph /  4.8km/h 59% 0.00in /  0mm 429 W/m2
12:59 21.7 °F /  -5.7 °C 9.2 °F /  -12.7 °C 30.48in /  1032.1hPa NW 2.0mph /  3.2km/h 4.0mph /  6.4km/h 58% 0.00in /  0mm 318 W/m2
13:05 21.5 °F /  -5.8 °C 9.0 °F /  -12.8 °C 30.48in /  1032.1hPa NW 2.0mph /  3.2km/h 4.0mph /  6.4km/h 58% 0.00in /  0mm 299 W/m2
13:12 21.7 °F /  -5.7 °C 8.8 °F /  -12.9 °C 30.48in /  1032.1hPa NW 2.0mph /  3.2km/h 4.0mph /  6.4km/h 57% 0.00in /  0mm 299 W/m2
13:18 21.5 °F /  -5.8 °C 8.6 °F /  -13 °C 30.48in /  1032.1hPa NW 3.0mph /  4.8km/h 4.0mph /  6.4km/h 57% 0.00in /  0mm 288 W/m2
13:23 21.5 °F /  -5.8 °C 8.6 °F /  -13 °C 30.48in /  1032.1hPa WNW 3.0mph /  4.8km/h 4.0mph /  6.4km/h 57% 0.00in /  0mm 320 W/m2
13:29 21.9 °F /  -5.6 °C 8.6 °F /  -13 °C 30.48in /  1032.1hPa West 3.0mph /  4.8km/h 3.0mph /  4.8km/h 56% 0.00in /  0mm 329 W/m2
13:36 22.2 °F /  -5.4 °C 9.3 °F /  -12.6 °C 30.47in /  1031.7hPa WNW 3.0mph /  4.8km/h 4.0mph /  6.4km/h 57% 0.00in /  0mm 334 W/m2
13:42 22.2 °F /  -5.4 °C 8.9 °F /  -12.8 °C 30.47in /  1031.7hPa West 3.0mph /  4.8km/h 3.0mph /  4.8km/h 56% 0.00in /  0mm 355 W/m2
13:48 22.3 °F /  -5.4 °C 8.6 °F /  -13 °C 30.48in /  1032.1hPa West 3.0mph /  4.8km/h 7.0mph /  11.3km/h 55% 0.00in /  0mm 357 W/m2
13:53 22.4 °F /  -5.3 °C 8.7 °F /  -12.9 °C 30.47in /  1031.7hPa NW 3.0mph /  4.8km/h 4.0mph /  6.4km/h 55% 0.00in /  0mm 295 W/m2
13:59 22.8 °F /  -5.1 °C 9.0 °F /  -12.8 °C 30.47in /  1031.7hPa NNW 2.0mph /  3.2km/h 2.0mph /  3.2km/h 55% 0.00in /  0mm 399 W/m2
14:05 22.7 °F /  -5.2 °C 8.5 °F /  -13.1 °C 30.47in /  1031.7hPa NW 3.0mph /  4.8km/h 6.0mph /  9.7km/h 54% 0.00in /  0mm 445 W/m2
14:12 23.5 °F /  -4.7 °C 9.3 °F /  -12.6 °C 30.48in /  1032.1hPa WNW 3.0mph /  4.8km/h 4.0mph /  6.4km/h 54% 0.00in /  0mm 359 W/m2
14:18 23.4 °F /  -4.8 °C 8.8 °F /  -12.9 °C 30.47in /  1031.7hPa WNW 3.0mph /  4.8km/h 4.0mph /  6.4km/h 53% 0.00in /  0mm 279 W/m2
14:24 23.1 °F /  -4.9 °C 9.3 °F /  -12.6 °C 30.47in /  1031.7hPa WNW 2.0mph /  3.2km/h 3.0mph /  4.8km/h 55% 0.00in /  0mm 264 W/m2
14:30 22.8 °F /  -5.1 °C 8.2 °F /  -13.2 °C 30.47in /  1031.7hPa NW 2.0mph /  3.2km/h 2.0mph /  3.2km/h 53% 0.00in /  0mm 236 W/m2
14:35 22.9 °F /  -5.1 °C 9.1 °F /  -12.7 °C 30.47in /  1031.7hPa WNW 2.0mph /  3.2km/h 3.0mph /  4.8km/h 55% 0.00in /  0mm 302 W/m2
14:42 23.2 °F /  -4.9 °C 9.4 °F /  -12.6 °C 30.47in /  1031.7hPa WNW 1.0mph /  1.6km/h 3.0mph /  4.8km/h 55% 0.00in /  0mm 234 W/m2
14:48 23.6 °F /  -4.7 °C 7.7 °F /  -13.5 °C 30.48in /  1032.1hPa NNW 1.0mph /  1.6km/h 4.0mph /  6.4km/h 50% 0.00in /  0mm 199 W/m2
14:54 23.0 °F /  -5 °C 7.5 °F /  -13.6 °C 30.48in /  1032.1hPa NNW 2.0mph /  3.2km/h 2.0mph /  3.2km/h 51% 0.00in /  0mm 357 W/m2
15:00 23.2 °F /  -4.9 °C 7.3 °F /  -13.7 °C 30.48in /  1032.1hPa West 2.0mph /  3.2km/h 2.0mph /  3.2km/h 50% 0.00in /  0mm 179 W/m2
15:05 22.5 °F /  -5.3 °C 7.1 °F /  -13.8 °C 30.49in /  1032.4hPa NW 3.0mph /  4.8km/h 3.0mph /  4.8km/h 51% 0.00in /  0mm 160 W/m2
15:53 22.4 °F /  -5.3 °C 5.2 °F /  -14.9 °C 30.49in /  1032.4hPa NW 1.0mph /  1.6km/h 1.0mph /  1.6km/h 47% 0.00in /  0mm 102 W/m2
16:00 22.3 °F /  -5.4 °C 5.6 °F /  -14.7 °C 30.49in /  1032.4hPa NW 2.0mph /  3.2km/h 2.0mph /  3.2km/h 48% 0.00in /  0mm 79 W/m2
16:06 22.1 °F /  -5.5 °C 4.9 °F /  -15.1 °C 30.49in /  1032.4hPa NW 1.0mph /  1.6km/h 2.0mph /  3.2km/h 47% 0.00in /  0mm 65 W/m2
16:12 21.9 °F /  -5.6 °C 4.7 °F /  -15.2 °C 30.49in /  1032.4hPa NW 1.0mph /  1.6km/h 2.0mph /  3.2km/h 47% 0.00in /  0mm 56 W/m2
16:18 21.8 °F /  -5.7 °C 4.6 °F /  -15.2 °C 30.50in /  1032.7hPa NW 1.0mph /  1.6km/h 2.0mph /  3.2km/h 47% 0.00in /  0mm 46 W/m2
16:23 21.7 °F /  -5.7 °C 4.5 °F /  -15.3 °C 30.50in /  1032.7hPa NW 1.0mph /  1.6km/h 1.0mph /  1.6km/h 47% 0.00in /  0mm 40 W/m2
16:30 21.7 °F /  -5.7 °C 5.0 °F /  -15 °C 30.50in /  1032.7hPa Calm     48% 0.00in /  0mm 32 W/m2
16:35 21.6 °F /  -5.8 °C 5.4 °F /  -14.8 °C 30.50in /  1032.7hPa Calm   1.0mph /  1.6km/h 49% 0.00in /  0mm 30 W/m2
16:42 21.5 °F /  -5.8 °C 5.3 °F /  -14.8 °C 30.50in /  1032.7hPa NW 1.0mph /  1.6km/h 1.0mph /  1.6km/h 49% 0.00in /  0mm 21 W/m2
16:48 21.4 °F /  -5.9 °C 5.2 °F /  -14.9 °C 30.50in /  1032.7hPa Calm   1.0mph /  1.6km/h 49% 0.00in /  0mm 16 W/m2
16:53 21.4 °F /  -5.9 °C 6.0 °F /  -14.4 °C 30.51in /  1033.1hPa Calm     51% 0.00in /  0mm 11 W/m2
16:59 21.3 °F /  -5.9 °C 6.0 °F /  -14.4 °C 30.51in /  1033.1hPa Calm     51% 0.00in /  0mm 7 W/m2
17:05 21.3 °F /  -5.9 °C 5.5 °F /  -14.7 °C 30.51in /  1033.1hPa Calm     50% 0.00in /  0mm 0 W/m2
17:12 21.2 °F /  -6 °C 5.9 °F /  -14.5 °C 30.51in /  1033.1hPa Calm     51% 0.00in /  0mm 0 W/m2
17:18 21.1 °F /  -6.1 °C 5.8 °F /  -14.6 °C 30.51in /  1033.1hPa Calm   1.0mph /  1.6km/h 51% 0.00in /  0mm 0 W/m2
17:24 21.1 °F /  -6.1 °C 5.8 °F /  -14.6 °C 30.51in /  1033.1hPa Calm     51% 0.00in /  0mm 0 W/m2
17:29 21.0 °F /  -6.1 °C 6.1 °F /  -14.4 °C 30.51in /  1033.1hPa Calm     52% 0.00in /  0mm 0 W/m2
17:35 21.0 °F /  -6.1 °C 6.5 °F /  -14.2 °C 30.51in /  1033.1hPa Calm     53% 0.00in /  0mm 0 W/m2
17:42 21.0 °F /  -6.1 °C 6.5 °F /  -14.2 °C 30.51in /  1033.1hPa Calm     53% 0.00in /  0mm 0 W/m2
17:48 20.9 °F /  -6.2 °C 6.4 °F /  -14.2 °C 30.52in /  1033.4hPa Calm     53% 0.00in /  0mm 0 W/m2
17:53 20.9 °F /  -6.2 °C 6.8 °F /  -14 °C 30.52in /  1033.4hPa Calm     54% 0.00in /  0mm 0 W/m2
17:59 20.8 °F /  -6.2 °C 6.7 °F /  -14.1 °C 30.52in /  1033.4hPa Calm     54% 0.00in /  0mm 0 W/m2
18:05 20.7 °F /  -6.3 °C 6.7 °F /  -14.1 °C 30.52in /  1033.4hPa Calm     54% 0.00in /  0mm 0 W/m2
18:12 20.6 °F /  -6.3 °C 7.4 °F /  -13.7 °C 30.53in /  1033.7hPa Calm     56% 0.00in /  0mm 0 W/m2
18:18 20.5 °F /  -6.4 °C 7.3 °F /  -13.7 °C 30.53in /  1033.7hPa Calm     56% 0.00in /  0mm 0 W/m2
18:24 20.2 °F /  -6.6 °C 7.4 °F /  -13.7 °C 30.53in /  1033.7hPa Calm     57% 0.00in /  0mm 0 W/m2
18:29 20.1 °F /  -6.6 °C 7.7 °F /  -13.5 °C 30.53in /  1033.7hPa Calm     58% 0.00in /  0mm 0 W/m2
18:35 20.1 °F /  -6.6 °C 8.4 °F /  -13.1 °C 30.52in /  1033.4hPa Calm     60% 0.00in /  0mm 0 W/m2
18:42 20.1 °F /  -6.6 °C 8.8 °F /  -12.9 °C 30.53in /  1033.7hPa Calm     61% 0.00in /  0mm 0 W/m2
18:48 20.0 °F /  -6.7 °C 9.1 °F /  -12.7 °C 30.53in /  1033.7hPa Calm     62% 0.00in /  0mm 0 W/m2
18:53 20.0 °F /  -6.7 °C 8.7 °F /  -12.9 °C 30.52in /  1033.4hPa Calm     61% 0.00in /  0mm 0 W/m2
18:59 20.1 °F /  -6.6 °C 8.4 °F /  -13.1 °C 30.52in /  1033.4hPa Calm   1.0mph /  1.6km/h 60% 0.00in /  0mm 0 W/m2
19:05 20.1 °F /  -6.6 °C 8.1 °F /  -13.3 °C 30.52in /  1033.4hPa NW 1.0mph /  1.6km/h 2.0mph /  3.2km/h 59% 0.00in /  0mm 0 W/m2
19:12 20.1 °F /  -6.6 °C 7.7 °F /  -13.5 °C 30.53in /  1033.7hPa NW 1.0mph /  1.6km/h 3.0mph /  4.8km/h 58% 0.00in /  0mm 0 W/m2
19:18 20.1 °F /  -6.6 °C 8.1 °F /  -13.3 °C 30.53in /  1033.7hPa ESE 1.0mph /  1.6km/h 3.0mph /  4.8km/h 59% 0.00in /  0mm 0 W/m2
19:23 20.0 °F /  -6.7 °C 8.3 °F /  -13.2 °C 30.53in /  1033.7hPa ESE 1.0mph /  1.6km/h 3.0mph /  4.8km/h 60% 0.00in /  0mm 0 W/m2
19:30 19.9 °F /  -6.7 °C 7.9 °F /  -13.4 °C 30.53in /  1033.7hPa ENE 2.0mph /  3.2km/h 2.0mph /  3.2km/h 59% 0.00in /  0mm 0 W/m2
19:35 19.8 °F /  -6.8 °C 8.1 °F /  -13.3 °C 30.53in /  1033.7hPa ENE 2.0mph /  3.2km/h 2.0mph /  3.2km/h 60% 0.00in /  0mm 0 W/m2
19:42 19.7 °F /  -6.8 °C 8.0 °F /  -13.3 °C 30.54in /  1034.1hPa ENE 1.0mph /  1.6km/h 2.0mph /  3.2km/h 60% 0.00in /  0mm 0 W/m2
19:48 19.7 °F /  -6.8 °C 8.0 °F /  -13.3 °C 30.54in /  1034.1hPa ENE 1.0mph /  1.6km/h 2.0mph /  3.2km/h 60% 0.00in /  0mm 0 W/m2
19:54 19.7 °F /  -6.8 °C 8.0 °F /  -13.3 °C 30.54in /  1034.1hPa ENE 1.0mph /  1.6km/h 2.0mph /  3.2km/h 60% 0.00in /  0mm 0 W/m2
19:59 19.6 °F /  -6.9 °C 8.7 °F /  -12.9 °C 30.54in /  1034.1hPa Calm     62% 0.00in /  0mm 0 W/m2
20:06 19.7 °F /  -6.8 °C 8.8 °F /  -12.9 °C 30.54in /  1034.1hPa Calm     62% 0.00in /  0mm 0 W/m2
20:12 19.6 °F /  -6.9 °C 8.3 °F /  -13.2 °C 30.54in /  1034.1hPa Calm     61% 0.00in /  0mm 0 W/m2
20:18 19.6 °F /  -6.9 °C 8.7 °F /  -12.9 °C 30.54in /  1034.1hPa Calm     62% 0.00in /  0mm 0 W/m2
20:24 19.6 °F /  -6.9 °C 8.7 °F /  -12.9 °C 30.54in /  1034.1hPa Calm     62% 0.00in /  0mm 0 W/m2
20:30 19.6 °F /  -6.9 °C 8.7 °F /  -12.9 °C 30.54in /  1034.1hPa Calm     62% 0.00in /  0mm 0 W/m2
20:35 19.6 °F /  -6.9 °C 8.7 °F /  -12.9 °C 30.54in /  1034.1hPa Calm   1.0mph /  1.6km/h 62% 0.00in /  0mm 0 W/m2
20:42 19.6 °F /  -6.9 °C 9.0 °F /  -12.8 °C 30.54in /  1034.1hPa Calm     63% 0.00in /  0mm 0 W/m2
20:48 19.6 °F /  -6.9 °C 8.7 °F /  -12.9 °C 30.55in /  1034.4hPa Calm     62% 0.00in /  0mm 0 W/m2
20:53 19.5 °F /  -6.9 °C 8.2 °F /  -13.2 °C 30.55in /  1034.4hPa Calm   1.0mph /  1.6km/h 61% 0.00in /  0mm 0 W/m2
20:59 19.5 °F /  -6.9 °C 8.2 °F /  -13.2 °C 30.55in /  1034.4hPa Calm   2.0mph /  3.2km/h 61% 0.00in /  0mm 0 W/m2
21:05 19.5 °F /  -6.9 °C 8.2 °F /  -13.2 °C 30.55in /  1034.4hPa ENE 1.0mph /  1.6km/h 2.0mph /  3.2km/h 61% 0.00in /  0mm 0 W/m2
21:12 19.5 °F /  -6.9 °C 8.6 °F /  -13 °C 30.55in /  1034.4hPa Calm   2.0mph /  3.2km/h 62% 0.00in /  0mm 0 W/m2
21:18 19.5 °F /  -6.9 °C 8.6 °F /  -13 °C 30.55in /  1034.4hPa Calm   2.0mph /  3.2km/h 62% 0.00in /  0mm 0 W/m2
21:23 19.5 °F /  -6.9 °C 8.6 °F /  -13 °C 30.55in /  1034.4hPa Calm     62% 0.00in /  0mm 0 W/m2
21:29 19.5 °F /  -6.9 °C 8.6 °F /  -13 °C 30.55in /  1034.4hPa Calm     62% 0.00in /  0mm 0 W/m2
21:35 19.5 °F /  -6.9 °C 8.6 °F /  -13 °C 30.56in /  1034.8hPa Calm     62% 0.00in /  0mm 0 W/m2
21:42 19.5 °F /  -6.9 °C 8.9 °F /  -12.8 °C 30.55in /  1034.4hPa Calm     63% 0.00in /  0mm 0 W/m2
21:48 19.5 °F /  -6.9 °C 8.9 °F /  -12.8 °C 30.55in /  1034.4hPa Calm     63% 0.00in /  0mm 0 W/m2
21:53 19.5 °F /  -6.9 °C 8.9 °F /  -12.8 °C 30.55in /  1034.4hPa Calm     63% 0.00in /  0mm 0 W/m2
21:59 19.5 °F /  -6.9 °C 8.9 °F /  -12.8 °C 30.56in /  1034.8hPa Calm     63% 0.00in /  0mm 0 W/m2
22:05 19.5 °F /  -6.9 °C 8.9 °F /  -12.8 °C 30.55in /  1034.4hPa Calm     63% 0.00in /  0mm 0 W/m2
22:12 19.5 °F /  -6.9 °C 8.9 °F /  -12.8 °C 30.55in /  1034.4hPa Calm     63% 0.00in /  0mm 0 W/m2
22:18 19.5 °F /  -6.9 °C 8.9 °F /  -12.8 °C 30.55in /  1034.4hPa Calm     63% 0.00in /  0mm 0 W/m2
22:23 19.4 °F /  -7 °C 9.5 °F /  -12.5 °C 30.55in /  1034.4hPa Calm     65% 0.00in /  0mm 0 W/m2
22:29 19.3 °F /  -7.1 °C 9.4 °F /  -12.6 °C 30.55in /  1034.4hPa Calm     65% 0.00in /  0mm 0 W/m2
22:36 19.1 °F /  -7.2 °C 8.9 °F /  -12.8 °C 30.55in /  1034.4hPa Calm     64% 0.00in /  0mm 0 W/m2
22:42 18.8 °F /  -7.3 °C 9.0 °F /  -12.8 °C 30.55in /  1034.4hPa Calm     65% 0.00in /  0mm 0 W/m2
22:48 18.4 °F /  -7.6 °C 8.9 °F /  -12.8 °C 30.55in /  1034.4hPa Calm     66% 0.00in /  0mm 0 W/m2
22:53 18.0 °F /  -7.8 °C 8.5 °F /  -13.1 °C 30.55in /  1034.4hPa Calm     66% 0.00in /  0mm 0 W/m2
22:59 17.6 °F /  -8 °C 8.5 °F /  -13.1 °C 30.56in /  1034.8hPa Calm     67% 0.00in /  0mm 0 W/m2
23:05 17.3 °F /  -8.2 °C 8.2 °F /  -13.2 °C 30.56in /  1034.8hPa Calm     67% 0.00in /  0mm 0 W/m2
23:12 16.9 °F /  -8.4 °C 8.5 °F /  -13.1 °C 30.56in /  1034.8hPa Calm     69% 0.00in /  0mm 0 W/m2
23:18 16.6 °F /  -8.6 °C 8.2 °F /  -13.2 °C 30.56in /  1034.8hPa Calm     69% 0.00in /  0mm 0 W/m2
23:23 16.3 °F /  -8.7 °C 8.2 °F /  -13.2 °C 30.56in /  1034.8hPa Calm     70% 0.00in /  0mm 0 W/m2
23:30 16.0 °F /  -8.9 °C 8.3 °F /  -13.2 °C 30.56in /  1034.8hPa Calm     71% 0.00in /  0mm 0 W/m2
23:36 15.7 °F /  -9.1 °C 8.0 °F /  -13.3 °C 30.56in /  1034.8hPa Calm     71% 0.00in /  0mm 0 W/m2
23:42 15.6 °F /  -9.1 °C 8.2 °F /  -13.2 °C 30.56in /  1034.8hPa Calm     72% 0.00in /  0mm 0 W/m2
23:48 15.3 °F /  -9.3 °C 7.9 °F /  -13.4 °C 30.57in /  1035.1hPa Calm     72% 0.00in /  0mm 0 W/m2
23:53 15.0 °F /  -9.4 °C 7.9 °F /  -13.4 °C 30.57in /  1035.1hPa Calm     73% 0.00in /  0mm 0 W/m2
Country Meadow, Clay, NY, USA
Compliments of Weather Underground - 2 mb